sensor_id;sensor_type;location;lat;lon;timestamp;pressure;altitude;pressure_sealevel;temperature;humidity
51530;BME280;37613;51.788;21.582;2022-12-04T00:01:32;101209.48;;;-0.38;100.00
51530;BME280;37613;51.788;21.582;2022-12-04T00:05:35;101210.61;;;-0.39;100.00
51530;BME280;37613;51.788;21.582;2022-12-04T00:09:36;101209.85;;;-0.40;100.00
51530;BME280;37613;51.788;21.582;2022-12-04T00:13:41;101214.27;;;-0.40;100.00
51530;BME280;37613;51.788;21.582;2022-12-04T00:17:46;101210.88;;;-0.42;100.00
51530;BME280;37613;51.788;21.582;2022-12-04T00:21:49;101208.67;;;-0.43;100.00
51530;BME280;37613;51.788;21.582;2022-12-04T00:25:59;101202.20;;;-0.43;100.00
51530;BME280;37613;51.788;21.582;2022-12-04T00:30:01;101200.02;;;-0.43;100.00
51530;BME280;37613;51.788;21.582;2022-12-04T00:34:08;101203.78;;;-0.43;100.00
51530;BME280;37613;51.788;21.582;2022-12-04T00:38:12;101205.53;;;-0.43;100.00
51530;BME280;37613;51.788;21.582;2022-12-04T00:42:14;101213.15;;;-0.43;100.00
51530;BME280;37613;51.788;21.582;2022-12-04T00:46:16;101220.76;;;-0.43;100.00
51530;BME280;37613;51.788;21.582;2022-12-04T00:50:18;101224.34;;;-0.43;100.00
51530;BME280;37613;51.788;21.582;2022-12-04T00:54:20;101229.92;;;-0.42;100.00
51530;BME280;37613;51.788;21.582;2022-12-04T00:58:22;101232.48;;;-0.42;100.00
51530;BME280;37613;51.788;21.582;2022-12-04T01:02:24;101233.10;;;-0.44;100.00
51530;BME280;37613;51.788;21.582;2022-12-04T01:06:29;101229.23;;;-0.43;100.00
51530;BME280;37613;51.788;21.582;2022-12-04T01:10:31;101226.86;;;-0.44;100.00
51530;BME280;37613;51.788;21.582;2022-12-04T01:14:33;101220.13;;;-0.45;100.00
51530;BME280;37613;51.788;21.582;2022-12-04T01:18:36;101208.88;;;-0.45;100.00
51530;BME280;37613;51.788;21.582;2022-12-04T01:22:38;101207.08;;;-0.45;100.00
51530;BME280;37613;51.788;21.582;2022-12-04T01:26:42;101209.42;;;-0.45;100.00
51530;BME280;37613;51.788;21.582;2022-12-04T01:30:44;101204.60;;;-0.46;100.00
51530;BME280;37613;51.788;21.582;2022-12-04T01:34:46;101198.89;;;-0.47;100.00
51530;BME280;37613;51.788;21.582;2022-12-04T01:38:48;101194.27;;;-0.47;100.00
51530;BME280;37613;51.788;21.582;2022-12-04T01:42:51;101190.98;;;-0.49;100.00
51530;BME280;37613;51.788;21.582;2022-12-04T01:46:58;101197.31;;;-0.49;100.00
51530;BME280;37613;51.788;21.582;2022-12-04T01:51:16;101199.21;;;-0.53;100.00
51530;BME280;37613;51.788;21.582;2022-12-04T01:55:20;101197.70;;;-0.60;100.00
51530;BME280;37613;51.788;21.582;2022-12-04T01:59:26;101198.35;;;-0.57;100.00
51530;BME280;37613;51.788;21.582;2022-12-04T02:03:29;101193.98;;;-0.59;100.00
51530;BME280;37613;51.788;21.582;2022-12-04T02:07:31;101189.98;;;-0.61;100.00
51530;BME280;37613;51.788;21.582;2022-12-04T02:11:38;101187.27;;;-0.60;100.00
51530;BME280;37613;51.788;21.582;2022-12-04T02:29:05;101189.09;;;-0.59;100.00
51530;BME280;37613;51.788;21.582;2022-12-04T02:33:30;101188.91;;;-0.62;100.00
51530;BME280;37613;51.788;21.582;2022-12-04T02:37:45;101183.27;;;-0.65;100.00
51530;BME280;37613;51.788;21.582;2022-12-04T02:42:38;101190.67;;;-0.59;100.00
51530;BME280;37613;51.788;21.582;2022-12-04T02:46:41;101191.92;;;-0.57;100.00
51530;BME280;37613;51.788;21.582;2022-12-04T02:50:47;101187.08;;;-0.56;100.00
51530;BME280;37613;51.788;21.582;2022-12-04T02:54:57;101183.73;;;-0.57;100.00
51530;BME280;37613;51.788;21.582;2022-12-04T02:59:28;101187.30;;;-0.59;100.00
51530;BME280;37613;51.788;21.582;2022-12-04T03:03:33;101188.14;;;-0.60;100.00
51530;BME280;37613;51.788;21.582;2022-12-04T03:07:50;101184.64;;;-0.62;100.00
51530;BME280;37613;51.788;21.582;2022-12-04T03:11:57;101186.11;;;-0.63;100.00
51530;BME280;37613;51.788;21.582;2022-12-04T03:20:12;101185.00;;;-0.67;100.00
51530;BME280;37613;51.788;21.582;2022-12-04T03:24:28;101188.39;;;-0.69;100.00
51530;BME280;37613;51.788;21.582;2022-12-04T03:29:04;101189.91;;;-0.70;100.00
51530;BME280;37613;51.788;21.582;2022-12-04T03:33:14;101190.73;;;-0.70;100.00
51530;BME280;37613;51.788;21.582;2022-12-04T03:37:21;101187.59;;;-0.70;100.00
51530;BME280;37613;51.788;21.582;2022-12-04T03:42:01;101182.16;;;-0.70;100.00
51530;BME280;37613;51.788;21.582;2022-12-04T03:46:09;101176.57;;;-0.71;100.00
51530;BME280;37613;51.788;21.582;2022-12-04T03:50:20;101177.52;;;-0.73;100.00
51530;BME280;37613;51.788;21.582;2022-12-04T03:54:34;101176.70;;;-0.73;100.00
51530;BME280;37613;51.788;21.582;2022-12-04T03:58:42;101182.81;;;-0.74;100.00
51530;BME280;37613;51.788;21.582;2022-12-04T04:02:54;101183.66;;;-0.75;100.00
51530;BME280;37613;51.788;21.582;2022-12-04T04:07:27;101181.34;;;-0.76;100.00
51530;BME280;37613;51.788;21.582;2022-12-04T04:11:57;101178.84;;;-0.77;100.00
51530;BME280;37613;51.788;21.582;2022-12-04T04:16:06;101180.61;;;-0.79;100.00
51530;BME280;37613;51.788;21.582;2022-12-04T04:20:48;101171.05;;;-0.82;100.00
51530;BME280;37613;51.788;21.582;2022-12-04T04:25:27;101172.45;;;-0.85;100.00
51530;BME280;37613;51.788;21.582;2022-12-04T04:29:30;101173.71;;;-0.87;100.00
51530;BME280;37613;51.788;21.582;2022-12-04T04:33:43;101172.44;;;-0.89;100.00
51530;BME280;37613;51.788;21.582;2022-12-04T04:38:20;101169.56;;;-0.89;100.00
51530;BME280;37613;51.788;21.582;2022-12-04T04:42:36;101165.70;;;-0.89;100.00
51530;BME280;37613;51.788;21.582;2022-12-04T04:46:47;101165.61;;;-0.90;100.00
51530;BME280;37613;51.788;21.582;2022-12-04T04:50:52;101163.83;;;-0.90;100.00
51530;BME280;37613;51.788;21.582;2022-12-04T04:54:55;101160.24;;;-0.97;100.00
51530;BME280;37613;51.788;21.582;2022-12-04T04:59:00;101172.02;;;-0.93;100.00
51530;BME280;37613;51.788;21.582;2022-12-04T05:03:02;101168.60;;;-0.93;100.00
51530;BME280;37613;51.788;21.582;2022-12-04T05:07:04;101163.06;;;-0.94;100.00
51530;BME280;37613;51.788;21.582;2022-12-04T05:11:10;101161.21;;;-0.94;100.00
51530;BME280;37613;51.788;21.582;2022-12-04T05:15:13;101162.73;;;-0.94;100.00
51530;BME280;37613;51.788;21.582;2022-12-04T05:19:15;101161.87;;;-0.93;100.00
51530;BME280;37613;51.788;21.582;2022-12-04T05:23:36;101159.58;;;-0.94;100.00
51530;BME280;37613;51.788;21.582;2022-12-04T05:27:38;101170.38;;;-0.92;100.00
51530;BME280;37613;51.788;21.582;2022-12-04T05:31:40;101171.19;;;-0.92;100.00
51530;BME280;37613;51.788;21.582;2022-12-04T05:35:42;101171.28;;;-0.91;100.00
51530;BME280;37613;51.788;21.582;2022-12-04T05:39:44;101175.13;;;-0.90;100.00
51530;BME280;37613;51.788;21.582;2022-12-04T05:43:47;101180.01;;;-0.89;100.00
51530;BME280;37613;51.788;21.582;2022-12-04T05:47:49;101176.10;;;-0.90;100.00
51530;BME280;37613;51.788;21.582;2022-12-04T05:51:52;101187.35;;;-0.90;100.00
51530;BME280;37613;51.788;21.582;2022-12-04T05:55:58;101182.22;;;-0.89;100.00
51530;BME280;37613;51.788;21.582;2022-12-04T06:00:01;101167.08;;;-0.89;100.00
51530;BME280;37613;51.788;21.582;2022-12-04T06:04:03;101172.09;;;-0.88;100.00
51530;BME280;37613;51.788;21.582;2022-12-04T06:08:06;101175.92;;;-0.89;100.00
51530;BME280;37613;51.788;21.582;2022-12-04T06:12:08;101188.73;;;-0.88;100.00
51530;BME280;37613;51.788;21.582;2022-12-04T06:16:16;101193.39;;;-0.87;100.00
51530;BME280;37613;51.788;21.582;2022-12-04T06:20:18;101191.09;;;-0.86;100.00
51530;BME280;37613;51.788;21.582;2022-12-04T06:24:22;101199.36;;;-0.87;100.00
51530;BME280;37613;51.788;21.582;2022-12-04T06:28:25;101211.11;;;-0.87;100.00
51530;BME280;37613;51.788;21.582;2022-12-04T06:32:27;101214.41;;;-0.86;100.00
51530;BME280;37613;51.788;21.582;2022-12-04T06:36:29;101199.91;;;-0.86;100.00
51530;BME280;37613;51.788;21.582;2022-12-04T06:40:31;101202.63;;;-0.88;100.00
51530;BME280;37613;51.788;21.582;2022-12-04T06:44:33;101203.90;;;-0.88;100.00
51530;BME280;37613;51.788;21.582;2022-12-04T06:48:36;101202.75;;;-0.88;100.00
51530;BME280;37613;51.788;21.582;2022-12-04T06:52:38;101195.46;;;-0.88;100.00
51530;BME280;37613;51.788;21.582;2022-12-04T06:56:40;101198.00;;;-0.87;100.00
51530;BME280;37613;51.788;21.582;2022-12-04T07:00:42;101198.65;;;-0.87;100.00
51530;BME280;37613;51.788;21.582;2022-12-04T07:04:44;101195.29;;;-0.86;100.00
51530;BME280;37613;51.788;21.582;2022-12-04T07:08:49;101198.77;;;-0.86;100.00
51530;BME280;37613;51.788;21.582;2022-12-04T07:12:52;101204.03;;;-0.85;100.00
51530;BME280;37613;51.788;21.582;2022-12-04T07:16:54;101211.95;;;-0.84;100.00
51530;BME280;37613;51.788;21.582;2022-12-04T07:20:56;101216.47;;;-0.85;100.00
51530;BME280;37613;51.788;21.582;2022-12-04T07:24:58;101221.19;;;-0.84;100.00
51530;BME280;37613;51.788;21.582;2022-12-04T07:29:00;101228.55;;;-0.82;100.00
51530;BME280;37613;51.788;21.582;2022-12-04T07:33:03;101230.98;;;-0.82;100.00
51530;BME280;37613;51.788;21.582;2022-12-04T07:37:05;101224.77;;;-0.81;100.00
51530;BME280;37613;51.788;21.582;2022-12-04T07:41:09;101223.64;;;-0.79;100.00
51530;BME280;37613;51.788;21.582;2022-12-04T07:45:11;101226.30;;;-0.77;100.00
51530;BME280;37613;51.788;21.582;2022-12-04T07:49:16;101229.27;;;-0.76;100.00
51530;BME280;37613;51.788;21.582;2022-12-04T07:53:18;101227.46;;;-0.75;100.00
51530;BME280;37613;51.788;21.582;2022-12-04T07:57:20;101227.27;;;-0.73;100.00
51530;BME280;37613;51.788;21.582;2022-12-04T08:01:23;101226.90;;;-0.71;100.00
51530;BME280;37613;51.788;21.582;2022-12-04T08:05:25;101229.02;;;-0.70;100.00
51530;BME280;37613;51.788;21.582;2022-12-04T08:09:27;101229.59;;;-0.68;100.00
51530;BME280;37613;51.788;21.582;2022-12-04T08:13:30;101236.40;;;-0.66;100.00
51530;BME280;37613;51.788;21.582;2022-12-04T08:17:32;101238.13;;;-0.63;100.00
51530;BME280;37613;51.788;21.582;2022-12-04T08:21:35;101239.85;;;-0.61;100.00
51530;BME280;37613;51.788;21.582;2022-12-04T08:25:38;101235.97;;;-0.59;100.00
51530;BME280;37613;51.788;21.582;2022-12-04T08:29:41;101242.61;;;-0.57;100.00
51530;BME280;37613;51.788;21.582;2022-12-04T08:33:44;101245.34;;;-0.55;100.00
51530;BME280;37613;51.788;21.582;2022-12-04T08:37:46;101250.06;;;-0.53;100.00
51530;BME280;37613;51.788;21.582;2022-12-04T08:41:48;101252.83;;;-0.50;100.00
51530;BME280;37613;51.788;21.582;2022-12-04T08:45:56;101250.06;;;-0.47;100.00
51530;BME280;37613;51.788;21.582;2022-12-04T08:49:59;101245.93;;;-0.43;100.00
51530;BME280;37613;51.788;21.582;2022-12-04T08:54:29;101246.20;;;-0.43;100.00
51530;BME280;37613;51.788;21.582;2022-12-04T09:14:21;101228.95;;;-0.33;100.00
51530;BME280;37613;51.788;21.582;2022-12-04T09:18:28;101227.95;;;-0.28;100.00
51530;BME280;37613;51.788;21.582;2022-12-04T09:22:33;101226.91;;;-0.25;100.00
51530;BME280;37613;51.788;21.582;2022-12-04T09:26:38;101227.09;;;-0.22;100.00
51530;BME280;37613;51.788;21.582;2022-12-04T09:30:44;101226.02;;;-0.20;100.00
51530;BME280;37613;51.788;21.582;2022-12-04T09:34:47;101228.52;;;-0.20;100.00
51530;BME280;37613;51.788;21.582;2022-12-04T09:38:51;101226.54;;;-0.19;100.00
51530;BME280;37613;51.788;21.582;2022-12-04T09:43:23;101223.16;;;-0.18;100.00
51530;BME280;37613;51.788;21.582;2022-12-04T09:47:35;101218.77;;;-0.17;100.00
51530;BME280;37613;51.788;21.582;2022-12-04T09:51:41;101213.80;;;-0.15;100.00
51530;BME280;37613;51.788;21.582;2022-12-04T09:56:03;101212.34;;;-0.12;100.00
51530;BME280;37613;51.788;21.582;2022-12-04T10:00:11;101208.79;;;-0.09;100.00
51530;BME280;37613;51.788;21.582;2022-12-04T10:04:15;101208.83;;;-0.08;100.00
51530;BME280;37613;51.788;21.582;2022-12-04T10:08:28;101209.10;;;-0.08;100.00
